createdAt,value
2019-01-17T00:01:52.888Z,15.80
2019-01-17T00:04:22.855Z,13.93
2019-01-17T00:07:10.939Z,16.23
2019-01-17T00:09:51.393Z,14.73
2019-01-17T00:12:24.065Z,15.00
2019-01-17T00:15:00.261Z,15.63
2019-01-17T00:17:33.349Z,15.03
2019-01-17T00:20:03.304Z,15.67
2019-01-17T00:22:42.300Z,14.67
2019-01-17T00:25:30.625Z,13.60
2019-01-17T00:28:03.629Z,14.30
2019-01-17T00:30:36.227Z,13.80
2019-01-17T00:33:15.230Z,13.60
2019-01-17T00:35:51.624Z,14.80
2019-01-17T00:38:21.665Z,14.47
2019-01-17T00:40:51.697Z,14.00
2019-01-17T00:43:27.131Z,14.23
2019-01-17T00:46:02.948Z,14.00
2019-01-17T00:48:32.943Z,15.00
2019-01-17T00:51:18.976Z,14.67
2019-01-17T00:53:51.692Z,13.70
2019-01-17T00:56:36.587Z,13.97
2019-01-17T00:59:12.978Z,12.80
2019-01-17T01:01:48.818Z,13.17
2019-01-17T01:04:18.861Z,14.30
2019-01-17T01:07:05.115Z,15.03
2019-01-17T01:09:41.305Z,15.43
2019-01-17T01:12:11.328Z,13.40
2019-01-17T01:14:47.076Z,13.57
2019-01-17T01:17:20.314Z,13.87
2019-01-17T01:20:06.506Z,12.97
2019-01-17T01:22:39.582Z,14.20
2019-01-17T01:25:20.012Z,14.00
2019-01-17T01:27:59.330Z,14.50
2019-01-17T01:30:43.958Z,12.60
2019-01-17T01:33:31.907Z,14.30
2019-01-17T01:36:01.901Z,15.10
2019-01-17T01:38:40.734Z,12.43
2019-01-17T01:41:10.715Z,13.67
2019-01-17T01:43:40.673Z,15.27
2019-01-17T01:46:22.386Z,14.90
2019-01-17T01:48:52.403Z,13.07
2019-01-17T01:51:31.145Z,14.53
2019-01-17T01:53:59.469Z,14.13
2019-01-17T01:56:27.792Z,13.67
2019-01-17T01:58:56.132Z,14.80
2019-01-17T02:01:25.171Z,15.50
2019-01-17T02:03:53.570Z,13.20
2019-01-17T02:06:21.955Z,14.27
2019-01-17T02:08:50.537Z,13.17
2019-01-17T02:11:18.857Z,14.17
2019-01-17T02:13:47.793Z,14.30
2019-01-17T02:16:16.289Z,14.83
2019-01-17T02:18:44.641Z,14.10
2019-01-17T02:21:13.245Z,13.30
2019-01-17T02:23:41.937Z,13.60
2019-01-17T02:26:10.622Z,13.97
2019-01-17T02:28:39.009Z,12.77
2019-01-17T02:31:07.416Z,12.63
2019-01-17T02:33:35.732Z,13.40
2019-01-17T02:36:04.663Z,13.60
2019-01-17T02:38:32.978Z,15.90
2019-01-17T02:41:01.628Z,14.17
2019-01-17T02:43:29.968Z,13.20
2019-01-17T02:45:58.363Z,13.87
2019-01-17T02:48:26.701Z,12.43
2019-01-17T02:50:55.016Z,14.73
2019-01-17T02:53:23.489Z,13.60
2019-01-17T02:55:51.878Z,12.87
2019-01-17T02:58:20.491Z,12.03
2019-01-17T03:00:48.888Z,12.70
2019-01-17T03:03:17.196Z,13.17
2019-01-17T03:05:45.659Z,15.63
2019-01-17T03:08:13.984Z,12.63
2019-01-17T03:10:42.723Z,12.93
2019-01-17T03:13:11.105Z,13.60
2019-01-17T03:15:39.520Z,12.27
2019-01-17T03:18:07.876Z,12.30
2019-01-17T03:20:36.255Z,13.67
2019-01-17T03:23:04.867Z,11.57
2019-01-17T03:25:33.254Z,13.07
2019-01-17T03:28:01.653Z,12.80
2019-01-17T03:30:30.289Z,12.37
2019-01-17T03:32:58.631Z,11.57
2019-01-17T03:35:27.009Z,11.90
2019-01-17T03:37:55.414Z,11.47
2019-01-17T03:40:23.800Z,13.40
2019-01-17T03:42:52.207Z,11.40
2019-01-17T03:45:20.521Z,12.03
2019-01-17T03:47:48.841Z,12.37
2019-01-17T03:50:17.240Z,12.27
2019-01-17T03:52:45.624Z,12.87
2019-01-17T03:55:16.458Z,12.93
2019-01-17T03:57:44.858Z,11.40
2019-01-17T04:00:16.508Z,11.70
2019-01-17T04:02:44.901Z,11.10
2019-01-17T04:05:13.577Z,12.97
2019-01-17T04:07:42.060Z,12.53
2019-01-17T04:10:13.514Z,11.93
2019-01-17T04:12:41.853Z,14.10
2019-01-17T04:15:12.105Z,13.00
2019-01-17T04:17:40.518Z,12.40
2019-01-17T04:20:14.045Z,12.20
2019-01-17T04:22:42.788Z,13.17
2019-01-17T04:25:11.267Z,12.87
2019-01-17T04:27:39.651Z,13.30
2019-01-17T04:30:11.299Z,13.47
2019-01-17T04:32:40.005Z,12.40
2019-01-17T04:35:08.354Z,14.70
2019-01-17T04:37:36.957Z,18.63
2019-01-17T04:40:08.531Z,15.90
2019-01-17T04:42:36.845Z,16.43
2019-01-17T04:45:06.807Z,18.00
2019-01-17T04:47:35.210Z,16.33
2019-01-17T04:50:04.472Z,15.13
2019-01-17T04:52:32.955Z,18.50
2019-01-17T04:55:05.443Z,17.77
2019-01-17T04:57:31.700Z,15.50
2019-01-17T05:00:00.017Z,16.90
2019-01-17T05:02:28.430Z,17.93
2019-01-17T05:04:56.741Z,16.83
2019-01-17T05:07:25.064Z,17.20
2019-01-17T05:09:53.402Z,16.43
2019-01-17T05:12:21.713Z,16.50
2019-01-17T05:14:50.060Z,17.60
2019-01-17T05:17:18.759Z,17.27
2019-01-17T05:19:47.233Z,16.10
2019-01-17T05:22:15.639Z,16.43
2019-01-17T05:24:44.052Z,16.90
2019-01-17T05:27:12.378Z,17.90
2019-01-17T05:29:40.764Z,14.73
2019-01-17T05:32:09.238Z,16.90
2019-01-17T05:34:39.611Z,17.57
2019-01-17T05:37:08.373Z,16.30
2019-01-17T05:39:36.690Z,17.40
2019-01-17T05:42:05.446Z,17.47
2019-01-17T05:44:33.760Z,17.50
2019-01-17T05:47:02.166Z,18.33
2019-01-17T05:49:30.483Z,16.80
2019-01-17T05:51:58.871Z,19.93
2019-01-17T05:54:27.211Z,18.60
2019-01-17T05:56:55.596Z,17.60
2019-01-17T05:59:23.957Z,20.43
2019-01-17T06:01:52.274Z,18.53
2019-01-17T06:04:20.608Z,18.07
2019-01-17T06:06:48.926Z,20.00
2019-01-17T06:09:17.644Z,20.43
2019-01-17T06:11:45.969Z,19.10
2019-01-17T06:14:14.289Z,18.07
2019-01-17T06:16:42.627Z,18.30
2019-01-17T06:19:10.951Z,19.93
2019-01-17T06:21:39.358Z,17.77
2019-01-17T06:24:07.746Z,19.20
2019-01-17T06:26:36.142Z,20.00
2019-01-17T06:29:04.857Z,18.67
2019-01-17T06:31:33.581Z,18.20
2019-01-17T06:34:01.984Z,21.77
2019-01-17T06:36:30.309Z,18.63
2019-01-17T06:38:58.650Z,17.70
2019-01-17T06:41:26.975Z,20.57
2019-01-17T06:43:55.328Z,21.30
2019-01-17T06:46:23.644Z,23.50
2019-01-17T06:48:51.963Z,21.60
2019-01-17T06:51:20.336Z,20.33
2019-01-17T06:53:48.659Z,19.80
2019-01-17T06:56:17.133Z,17.90
2019-01-17T06:58:45.891Z,19.13
2019-01-17T07:01:14.220Z,19.03
2019-01-17T07:03:42.536Z,18.93
2019-01-17T07:06:10.893Z,20.93
2019-01-17T07:08:39.619Z,19.63
2019-01-17T07:11:07.936Z,20.93
2019-01-17T07:13:36.283Z,21.20
2019-01-17T07:16:05.063Z,19.80
2019-01-17T07:18:33.409Z,22.70
2019-01-17T07:21:01.717Z,23.70
2019-01-17T07:23:30.419Z,21.73
2019-01-17T07:25:58.812Z,20.67
2019-01-17T07:28:27.503Z,19.07
2019-01-17T07:30:55.813Z,21.17
2019-01-17T07:33:24.489Z,20.33
2019-01-17T07:35:52.807Z,20.73
2019-01-17T07:38:21.289Z,22.87
2019-01-17T07:40:49.607Z,20.53
2019-01-17T07:43:17.991Z,21.40
2019-01-17T07:45:46.377Z,20.53
2019-01-17T07:48:14.641Z,21.40
2019-01-17T07:50:42.987Z,20.73
2019-01-17T07:53:11.388Z,21.50
2019-01-17T07:55:39.717Z,19.10
2019-01-17T07:58:08.100Z,19.27
2019-01-17T08:00:36.448Z,21.87
2019-01-17T08:03:05.138Z,22.37
2019-01-17T08:05:33.617Z,21.97
2019-01-17T08:08:02.003Z,22.30
2019-01-17T08:10:30.505Z,23.23
2019-01-17T08:12:58.839Z,21.63
2019-01-17T08:15:27.239Z,22.23
2019-01-17T08:17:55.575Z,23.30
2019-01-17T08:20:24.522Z,23.93
2019-01-17T08:22:52.927Z,22.50
2019-01-17T08:25:21.584Z,22.43
2019-01-17T08:27:49.963Z,25.30
2019-01-17T08:30:24.009Z,23.30
2019-01-17T08:32:52.403Z,23.53
2019-01-17T08:35:21.166Z,26.40
2019-01-17T08:37:49.549Z,23.93
2019-01-17T08:40:29.913Z,26.47
2019-01-17T08:42:58.596Z,22.57
2019-01-17T08:45:26.990Z,28.57
2019-01-17T08:47:55.370Z,28.27
2019-01-17T08:50:24.154Z,30.47
2019-01-17T08:52:52.462Z,30.87
2019-01-17T08:55:21.170Z,31.23
2019-01-17T08:57:49.913Z,31.50
2019-01-17T09:00:23.960Z,30.33
2019-01-17T09:02:52.295Z,28.80
2019-01-17T09:05:20.680Z,28.47
2019-01-17T09:07:49.180Z,28.33
2019-01-17T09:10:20.233Z,27.40
2019-01-17T09:12:48.632Z,30.20
2019-01-17T09:15:22.927Z,31.47
2019-01-17T09:17:51.343Z,29.53
2019-01-17T09:20:19.990Z,30.00
2019-01-17T09:22:48.374Z,30.70
2019-01-17T09:25:18.031Z,28.70
2019-01-17T09:27:46.349Z,27.60
2019-01-17T09:30:17.124Z,26.20
2019-01-17T09:32:45.436Z,26.00
2019-01-17T09:35:15.411Z,24.60
2019-01-17T09:37:44.270Z,27.47
2019-01-17T09:40:15.227Z,23.60
2019-01-17T09:42:43.991Z,26.20
2019-01-17T09:45:12.940Z,23.83
2019-01-17T09:47:41.413Z,26.90
2019-01-17T09:50:12.900Z,26.43
2019-01-17T09:52:41.305Z,23.67
2019-01-17T09:55:10.342Z,25.20
2019-01-17T09:57:38.693Z,25.23
2019-01-17T10:00:21.608Z,25.93
2019-01-17T10:02:50.366Z,24.63
2019-01-17T10:05:18.743Z,23.90
2019-01-17T10:07:47.305Z,22.27
2019-01-17T10:10:17.984Z,23.63
2019-01-17T10:12:46.829Z,21.70
2019-01-17T10:15:21.150Z,19.90
2019-01-17T10:18:01.922Z,21.33
2019-01-17T10:21:05.264Z,21.57
2019-01-17T10:23:39.426Z,21.70
2019-01-17T10:26:10.938Z,22.30
2019-01-17T10:29:01.091Z,19.90
2019-01-17T10:31:38.007Z,18.10
2019-01-17T10:34:12.276Z,19.53
2019-01-17T10:36:49.594Z,20.40
2019-01-17T10:39:29.534Z,18.50
2019-01-17T10:42:03.967Z,21.30
2019-01-17T10:44:35.822Z,19.73
2019-01-17T10:47:19.322Z,20.37
2019-01-17T10:49:53.531Z,21.17
2019-01-17T10:52:59.960Z,21.37
2019-01-17T10:55:34.180Z,20.63
2019-01-17T10:58:14.944Z,23.50
2019-01-17T11:00:55.324Z,21.30
2019-01-17T11:03:35.422Z,18.23
2019-01-17T11:06:26.488Z,18.90
2019-01-17T11:09:17.798Z,17.13
2019-01-17T11:11:49.301Z,20.30
2019-01-17T11:14:21.115Z,16.57
2019-01-17T11:17:26.722Z,15.27
2019-01-17T11:20:00.872Z,15.30
2019-01-17T11:22:50.478Z,14.20
2019-01-17T11:25:53.548Z,16.40
2019-01-17T11:28:30.884Z,14.17
2019-01-17T11:31:11.005Z,13.97
2019-01-17T11:33:57.639Z,13.77
2019-01-17T11:36:44.189Z,13.83
2019-01-17T11:39:20.870Z,12.30
2019-01-17T11:41:55.120Z,11.83
2019-01-17T11:45:01.254Z,11.70
2019-01-17T11:47:59.901Z,11.63
2019-01-17T11:50:43.257Z,10.37
2019-01-17T11:53:14.734Z,11.30
2019-01-17T11:56:07.020Z,9.40
2019-01-17T11:59:13.178Z,8.30
2019-01-17T12:02:03.427Z,8.87
2019-01-17T12:04:31.182Z,8.47
2019-01-17T12:07:02.269Z,8.23
2019-01-17T12:09:30.580Z,8.70
2019-01-17T12:11:59.355Z,8.13
2019-01-17T12:14:27.739Z,9.10
2019-01-17T12:16:56.067Z,9.40
2019-01-17T12:19:24.488Z,8.43
2019-01-17T12:21:52.822Z,7.50
2019-01-17T12:24:21.130Z,7.63
2019-01-17T12:26:49.850Z,7.80
2019-01-17T12:29:18.228Z,9.13
2019-01-17T12:31:46.627Z,7.37
2019-01-17T12:34:15.207Z,7.93
2019-01-17T12:36:43.537Z,8.93
2019-01-17T12:39:13.989Z,9.07
2019-01-17T12:41:42.319Z,9.40
2019-01-17T12:44:10.634Z,8.10
2019-01-17T12:46:39.364Z,9.27
2019-01-17T12:49:08.052Z,9.10
2019-01-17T12:51:36.361Z,8.80
2019-01-17T12:54:05.133Z,7.57
2019-01-17T12:56:33.806Z,9.43
2019-01-17T12:59:02.208Z,7.37
2019-01-17T13:01:30.562Z,7.27
2019-01-17T13:03:59.041Z,8.40
2019-01-17T13:06:27.355Z,8.13
2019-01-17T13:08:55.700Z,8.10
2019-01-17T13:11:24.310Z,8.60
2019-01-17T13:13:52.639Z,8.53
2019-01-17T13:16:21.376Z,8.90
2019-01-17T13:18:49.987Z,8.03
2019-01-17T13:21:18.435Z,8.20
2019-01-17T13:23:47.353Z,9.00
2019-01-17T13:26:15.741Z,11.40
2019-01-17T13:28:44.308Z,9.67
2019-01-17T13:31:12.758Z,10.57
2019-01-17T13:33:41.093Z,12.60
2019-01-17T13:36:11.322Z,11.97
2019-01-17T13:38:39.662Z,11.57
2019-01-17T13:41:08.043Z,12.77
2019-01-17T13:43:36.410Z,14.50
2019-01-17T13:46:05.697Z,14.03
2019-01-17T13:48:34.296Z,14.03
2019-01-17T13:51:02.748Z,13.03
2019-01-17T13:53:31.159Z,12.17
2019-01-17T13:55:59.472Z,13.37
2019-01-17T13:58:27.816Z,11.40
2019-01-17T14:00:56.194Z,13.33
2019-01-17T14:03:24.516Z,12.20
2019-01-17T14:16:13.768Z,12.80
2019-01-17T14:18:42.111Z,12.43
2019-01-17T14:21:10.568Z,10.70
2019-01-17T14:23:38.900Z,9.90
2019-01-17T14:26:07.225Z,10.30
2019-01-17T14:28:35.983Z,9.27
2019-01-17T14:31:04.370Z,11.17
2019-01-17T14:33:33.077Z,9.83
2019-01-17T14:36:01.529Z,10.20
2019-01-17T14:38:29.864Z,9.00
2019-01-17T14:40:58.515Z,9.23
2019-01-17T14:43:26.985Z,8.57
2019-01-17T14:45:55.369Z,8.00
2019-01-17T14:48:23.851Z,8.80
2019-01-17T14:50:52.185Z,10.70
2019-01-17T14:53:20.507Z,10.27
2019-01-17T14:55:48.832Z,10.57
2019-01-17T14:58:17.147Z,11.20
2019-01-17T15:00:45.499Z,10.60
2019-01-17T15:03:13.788Z,8.70
2019-01-17T15:05:42.189Z,9.83
2019-01-17T15:08:10.508Z,8.27
2019-01-17T15:10:39.877Z,8.60
2019-01-17T15:13:08.800Z,7.43
2019-01-17T15:15:37.503Z,6.90
2019-01-17T15:18:06.589Z,8.03
2019-01-17T15:20:34.929Z,8.60
2019-01-17T15:23:03.412Z,8.17
2019-01-17T15:25:31.761Z,7.63
2019-01-17T15:28:00.138Z,9.73
2019-01-17T15:30:28.633Z,7.97
2019-01-17T15:32:57.017Z,8.80
2019-01-17T15:35:25.369Z,9.97
2019-01-17T15:37:53.784Z,9.20
2019-01-17T15:40:27.316Z,9.27
2019-01-17T15:42:56.056Z,10.47
2019-01-17T15:45:24.364Z,6.77
2019-01-17T15:47:52.694Z,7.23
2019-01-17T15:50:21.279Z,5.90
2019-01-17T15:52:50.073Z,4.33
2019-01-17T15:55:18.654Z,3.70
2019-01-17T15:57:47.654Z,3.03
2019-01-17T16:00:24.247Z,4.33
2019-01-17T16:02:52.708Z,3.30
2019-01-17T16:05:21.384Z,2.63
2019-01-17T16:07:49.701Z,1.93
2019-01-17T16:10:18.075Z,2.97
2019-01-17T16:12:46.409Z,2.70
2019-01-17T16:15:20.685Z,3.03
2019-01-17T16:17:49.084Z,2.93
2019-01-17T16:20:17.861Z,3.33
2019-01-17T16:22:46.646Z,3.50
2019-01-17T16:25:15.670Z,2.80
2019-01-17T16:27:44.404Z,3.37
2019-01-17T16:30:18.849Z,2.77
2019-01-17T16:32:47.233Z,2.80
2019-01-17T16:35:15.767Z,4.97
2019-01-17T16:37:44.904Z,10.00
2019-01-17T16:40:14.027Z,8.57
2019-01-17T16:42:42.711Z,3.30
2019-01-17T16:45:16.590Z,3.53
2019-01-17T16:47:45.496Z,4.00
2019-01-17T16:50:16.169Z,3.40
2019-01-17T16:52:44.697Z,5.10
2019-01-17T16:55:14.661Z,2.93
2019-01-17T16:57:48.797Z,2.60
2019-01-17T17:00:16.397Z,2.90
2019-01-17T17:02:44.708Z,3.20
2019-01-17T17:05:13.097Z,2.90
2019-01-17T17:07:41.461Z,3.60
2019-01-17T17:10:14.905Z,2.90
2019-01-17T17:12:43.272Z,2.50
2019-01-17T17:15:11.663Z,3.00
2019-01-17T17:17:40.103Z,2.60
2019-01-17T17:20:14.463Z,2.50
2019-01-17T17:22:42.837Z,2.53
2019-01-17T17:25:11.240Z,2.47
2019-01-17T17:27:39.559Z,3.20
2019-01-17T17:30:19.305Z,2.80
2019-01-17T17:32:47.613Z,3.67
2019-01-17T17:35:15.937Z,3.07
2019-01-17T17:37:44.412Z,3.70
2019-01-17T17:40:18.687Z,18.43
2019-01-17T17:42:47.464Z,2.80
2019-01-17T17:45:15.857Z,2.67
2019-01-17T17:47:44.229Z,2.60
2019-01-17T17:50:15.739Z,2.33
2019-01-17T17:52:44.052Z,1.70
2019-01-17T17:55:14.918Z,1.80
2019-01-17T17:57:43.361Z,2.10
2019-01-17T18:00:24.674Z,1.90
2019-01-17T18:02:53.647Z,2.40
2019-01-17T18:05:21.971Z,1.97
2019-01-17T18:07:50.283Z,1.77
2019-01-17T18:10:18.679Z,1.40
2019-01-17T18:12:46.992Z,2.93
2019-01-17T18:15:17.050Z,2.50
2019-01-17T18:17:45.917Z,2.40
2019-01-17T18:20:15.684Z,2.63
2019-01-17T18:22:44.071Z,2.33
2019-01-17T18:25:13.217Z,2.20
2019-01-17T18:27:41.600Z,2.73
2019-01-17T18:30:18.842Z,3.00
2019-01-17T18:32:47.474Z,2.80
2019-01-17T18:35:16.324Z,5.83
2019-01-17T18:37:44.723Z,3.67
2019-01-17T18:40:16.450Z,3.60
2019-01-17T18:42:45.093Z,2.53
2019-01-17T18:45:17.039Z,3.13
2019-01-17T18:47:45.534Z,3.40
2019-01-17T18:50:22.629Z,3.30
2019-01-17T18:52:50.928Z,3.70
2019-01-17T18:55:19.250Z,3.50
2019-01-17T18:57:47.663Z,4.23
2019-01-17T19:00:25.755Z,5.03
2019-01-17T19:02:54.083Z,3.40
2019-01-17T19:05:22.966Z,3.20
2019-01-17T19:07:51.946Z,4.03
2019-01-17T19:10:21.374Z,3.27
2019-01-17T19:12:50.144Z,4.50
2019-01-17T19:15:21.508Z,4.70
2019-01-17T19:17:49.846Z,8.00
2019-01-17T19:20:20.767Z,3.53
2019-01-17T19:22:49.334Z,3.70
2019-01-17T19:25:18.304Z,3.60
2019-01-17T19:27:46.690Z,4.20
2019-01-17T19:30:18.099Z,3.77
2019-01-17T19:32:46.792Z,5.10
2019-01-17T19:35:15.168Z,2.57
2019-01-17T19:37:44.207Z,2.93
2019-01-17T19:40:15.630Z,3.03
2019-01-17T19:42:43.921Z,2.13
2019-01-17T19:45:14.383Z,1.47
2019-01-17T19:47:42.855Z,1.07
2019-01-17T19:50:14.625Z,1.40
2019-01-17T19:52:43.018Z,1.20
2019-01-17T19:55:11.783Z,1.00
2019-01-17T19:57:40.105Z,1.50
2019-01-17T20:00:20.523Z,1.40
2019-01-17T20:02:49.001Z,1.10
2019-01-17T20:05:20.128Z,0.90
2019-01-17T20:07:48.528Z,0.90
2019-01-17T20:10:19.761Z,0.70
2019-01-17T20:12:48.168Z,1.10
2019-01-17T20:15:16.865Z,1.43
2019-01-17T20:17:45.263Z,1.10
2019-01-17T20:20:16.785Z,1.17
2019-01-17T20:22:45.504Z,1.10
2019-01-17T20:25:13.876Z,1.00
2019-01-17T20:27:42.200Z,1.70
2019-01-17T20:30:25.771Z,1.10
2019-01-17T20:32:55.164Z,1.43
2019-01-17T20:35:23.475Z,0.87
2019-01-17T20:37:51.800Z,3.30
2019-01-17T20:40:22.048Z,1.23
2019-01-17T20:42:50.442Z,1.30
2019-01-17T20:45:18.911Z,1.40
2019-01-17T20:47:47.417Z,0.90
2019-01-17T20:50:19.296Z,0.77
2019-01-17T20:52:47.634Z,1.10
2019-01-17T20:55:15.945Z,1.13
2019-01-17T20:57:45.405Z,1.10
2019-01-17T21:00:25.779Z,4.30
2019-01-17T21:02:54.108Z,3.00
2019-01-17T21:05:23.039Z,1.30
2019-01-17T21:07:51.515Z,0.93
2019-01-17T21:10:20.052Z,1.07
2019-01-17T21:12:48.757Z,0.70
2019-01-17T21:15:17.133Z,1.00
2019-01-17T21:17:45.436Z,0.83
2019-01-17T21:20:14.741Z,1.00
2019-01-17T21:22:43.411Z,0.93
2019-01-17T21:25:14.750Z,1.00
2019-01-17T21:27:43.130Z,1.40
2019-01-17T21:30:17.199Z,1.27
2019-01-17T21:32:45.511Z,0.90
2019-01-17T21:35:14.226Z,1.07
2019-01-17T21:37:42.531Z,1.20
2019-01-17T21:40:14.162Z,1.03
2019-01-17T21:42:42.658Z,1.07
2019-01-17T21:45:16.051Z,1.10
2019-01-17T21:47:44.437Z,1.20
2019-01-17T21:50:18.529Z,1.30
2019-01-17T21:52:46.910Z,1.20
2019-01-17T21:55:15.620Z,1.60
2019-01-17T21:57:44.011Z,1.43
2019-01-17T22:00:18.102Z,1.40
2019-01-17T22:02:46.406Z,1.10
2019-01-17T22:05:14.815Z,1.50
2019-01-17T22:07:43.262Z,1.40
2019-01-17T22:10:14.239Z,1.10
2019-01-17T22:12:42.610Z,1.50
2019-01-17T22:15:17.012Z,1.43
2019-01-17T22:17:45.322Z,1.43
2019-01-17T22:20:14.195Z,1.43
2019-01-17T22:22:42.492Z,0.97
2019-01-17T22:25:13.740Z,1.00
2019-01-17T22:27:42.403Z,1.33
2019-01-17T22:30:13.889Z,0.90
2019-01-17T22:32:42.214Z,1.20
2019-01-17T22:35:10.611Z,1.37
2019-01-17T22:37:38.905Z,1.03
2019-01-17T22:40:10.439Z,1.20
2019-01-17T22:42:38.837Z,1.10
2019-01-17T22:45:13.141Z,0.83
2019-01-17T22:47:43.234Z,0.80
2019-01-17T22:50:14.997Z,0.90
2019-01-17T22:52:43.309Z,0.83
2019-01-17T22:55:11.695Z,1.33
2019-01-17T22:57:40.004Z,1.07
2019-01-17T23:00:23.262Z,1.00
2019-01-17T23:02:51.573Z,1.20
2019-01-17T23:05:19.900Z,0.70
2019-01-17T23:07:48.562Z,0.93
2019-01-17T23:10:16.955Z,0.77
2019-01-17T23:12:45.261Z,0.67
2019-01-17T23:15:13.663Z,0.70
2019-01-17T23:17:42.034Z,0.90
2019-01-17T23:20:11.129Z,0.80
2019-01-17T23:22:39.442Z,0.87
2019-01-17T23:25:08.543Z,0.70
2019-01-17T23:27:36.849Z,0.80
2019-01-17T23:30:08.354Z,1.00
2019-01-17T23:32:36.661Z,0.83
2019-01-17T23:35:07.102Z,0.70
2019-01-17T23:37:35.513Z,1.23
2019-01-17T23:40:05.668Z,0.80
2019-01-17T23:42:33.988Z,0.90
2019-01-17T23:45:02.674Z,1.23
2019-01-17T23:47:31.367Z,1.00
2019-01-17T23:50:00.234Z,1.00
2019-01-17T23:52:28.660Z,1.30
2019-01-17T23:54:57.330Z,0.93
2019-01-17T23:57:25.666Z,1.03
2019-01-17T23:59:53.977Z,1.20
